Search for airport 
image banner adimage banner adimage banner ad
image banner ad

CL45 - North Net Training Authority

Located in Anaheim, United States

ICAO - CL45, IATA -

Data provided by Airmate  

General information

Coordinates: N33°47'42" W117°52'52"
Elevation is 145 feet MSL.
Magnetic variation is 14° East
View others Airports in California

Operational data

Special qualification required
Current time UTC:
Current local time:
Weather at : KFUL - Fullerton Muni ( 13 km )
METAR: KFUL 141153Z AUTO 00000KT 10SM CLR 17/13 A2988 RMK AO2 SLP116 T01720128 10206 20172 58006
View NOTAMs / SUP AIP / TFR affecting this airport [VIEW]
Communications frequencies: [VIEW]

Runways:

Airport contact information

Address: Anaheim United States

Satellite view of CL45